Time;durP1;ratioP1;P1;durP2;ratioP2;P2;SDS_P1;SDS_P2;PMS_P1;PMS_P2;Temp;Humidity;BMP_temperature;BMP_pressure;BME280_temperature;BME280_humidity;BME280_pressure;Samples;Min_cycle;Max_cycle;Signal;HPM_P1;HPM_P2
2023/08/16 00:00:37;;;;;;;7.78;5.00;;;;;;;27.23;50.09;100449.84;4881182;29;20129;-73
2023/08/16 00:03:05;;;;;;;9.98;5.15;;;;;;;27.22;50.39;100441.81;4880898;29;20499;-73
2023/08/16 00:05:34;;;;;;;8.35;5.18;;;;;;;27.22;50.10;100441.81;4881153;29;20091;-73
2023/08/16 00:08:03;;;;;;;8.70;5.50;;;;;;;27.21;49.90;100443.69;4881445;29;20049;-73
2023/08/16 00:10:31;;;;;;;7.28;5.07;;;;;;;27.20;50.54;100444.72;4881255;29;20117;-73
2023/08/16 00:13:04;;;;;;;8.43;5.07;;;;;;;27.18;50.55;100435.03;4880995;29;20483;-74
2023/08/16 00:15:37;;;;;;;9.75;5.40;;;;;;;27.19;50.75;100437.56;4880815;29;20109;-73
2023/08/16 00:18:05;;;;;;;8.00;5.45;;;;;;;27.17;50.34;100445.13;4880946;29;20061;-74
2023/08/16 00:20:36;;;;;;;10.00;5.53;;;;;;;27.15;50.50;100441.75;4879800;29;20165;-73
2023/08/16 00:23:05;;;;;;;8.70;5.35;;;;;;;27.16;50.66;100432.50;4881043;29;20053;-73
2023/08/16 00:25:33;;;;;;;7.97;5.30;;;;;;;27.16;50.92;100448.06;4880784;29;20049;-73
2023/08/16 00:28:01;;;;;;;8.23;5.10;;;;;;;27.14;50.78;100442.78;4880808;29;20049;-73
2023/08/16 00:30:30;;;;;;;10.63;5.50;;;;;;;27.14;50.55;100440.06;4880970;29;20049;-73
2023/08/16 00:32:59;;;;;;;12.30;5.50;;;;;;;27.13;50.52;100441.09;4880805;29;20049;-73
2023/08/16 00:35:28;;;;;;;7.85;5.60;;;;;;;27.12;51.11;100444.88;4879444;29;20095;-73
2023/08/16 00:37:58;;;;;;;7.38;5.40;;;;;;;27.12;50.77;100444.88;4880623;29;20052;-73
2023/08/16 00:40:26;;;;;;;8.05;5.68;;;;;;;27.10;50.71;100445.06;4880404;29;20057;-73
2023/08/16 00:42:54;;;;;;;7.45;5.38;;;;;;;27.10;50.91;100444.22;4880472;29;20499;-74
2023/08/16 00:45:23;;;;;;;8.00;5.50;;;;;;;27.08;51.17;100438.09;4880509;29;20049;-73
2023/08/16 00:47:51;;;;;;;8.80;5.50;;;;;;;27.08;51.41;100440.81;4880512;29;20060;-73
2023/08/16 00:50:24;;;;;;;8.48;5.53;;;;;;;27.07;51.26;100439.13;4879425;29;20048;-74
2023/08/16 00:52:53;;;;;;;7.80;5.43;;;;;;;27.05;51.20;100438.50;4879214;29;20113;-74
2023/08/16 00:55:22;;;;;;;8.30;5.60;;;;;;;27.05;51.16;100433.00;4880322;29;20593;-73
2023/08/16 00:57:51;;;;;;;9.00;5.45;;;;;;;27.03;51.55;100433.22;4880434;29;20049;-74
2023/08/16 01:00:20;;;;;;;7.88;5.70;;;;;;;27.01;51.25;100427.03;4880475;29;20477;-74
2023/08/16 01:02:48;;;;;;;8.48;5.38;;;;;;;27.02;51.44;100427.88;4880077;29;20566;-74
2023/08/16 01:05:17;;;;;;;9.43;5.78;;;;;;;27.01;51.65;100424.28;4880311;29;20388;-74
2023/08/16 01:07:49;;;;;;;8.60;6.45;;;;;;;27.01;51.66;100417.97;4880034;29;20068;-73
2023/08/16 01:10:18;;;;;;;9.82;5.50;;;;;;;26.99;51.90;100420.06;4880420;29;20057;-74
2023/08/16 01:12:56;;;;;;;8.15;5.65;;;;;;;26.99;52.44;100420.06;4878990;29;20085;-73
2023/08/16 01:15:32;;;;;;;10.05;5.82;;;;;;;26.97;52.39;100416.69;4880139;29;20057;-74
2023/08/16 01:18:02;;;;;;;11.43;5.88;;;;;;;26.95;52.30;100413.28;4879947;29;20470;-74
2023/08/16 01:20:31;;;;;;;7.80;5.80;;;;;;;26.93;52.82;100408.03;4879875;29;20053;-74
2023/08/16 01:23:06;;;;;;;9.85;6.00;;;;;;;26.94;52.64;100417.06;4879835;29;20144;-73
2023/08/16 01:25:44;;;;;;;8.05;6.38;;;;;;;26.92;52.98;100408.19;4879954;29;20076;-73
2023/08/16 01:28:15;;;;;;;9.05;5.40;;;;;;;26.92;52.85;100406.28;4879776;29;20056;-74
2023/08/16 01:30:46;;;;;;;9.02;6.10;;;;;;;26.92;53.54;100414.50;4879624;29;20057;-73
2023/08/16 01:33:15;;;;;;;8.73;5.50;;;;;;;26.91;53.33;100411.97;4879870;29;20061;-73
2023/08/16 01:35:44;;;;;;;10.38;6.28;;;;;;;26.89;53.71;100409.44;4878394;29;20156;-73
2023/08/16 01:38:14;;;;;;;8.07;5.72;;;;;;;26.90;53.38;100413.84;4879801;29;20136;-73
2023/08/16 01:40:58;;;;;;;8.23;6.03;;;;;;;26.89;53.97;100414.06;4879631;29;20053;-73
2023/08/16 01:43:29;;;;;;;8.18;6.35;;;;;;;26.88;54.08;100421.44;4879963;29;20136;-73
2023/08/16 01:45:59;;;;;;;7.68;5.82;;;;;;;26.87;53.83;100421.63;4879548;29;20487;-72
2023/08/16 01:48:29;;;;;;;9.23;5.82;;;;;;;26.86;54.13;100420.78;4878021;29;20052;-73
2023/08/16 01:50:58;;;;;;;7.10;5.75;;;;;;;26.86;54.21;100419.94;4879644;29;20057;-73
2023/08/16 01:53:26;;;;;;;8.77;6.07;;;;;;;26.85;54.00;100412.75;4879359;29;20139;-74
2023/08/16 01:55:54;;;;;;;6.72;5.38;;;;;;;26.85;54.07;100407.28;4879162;29;20057;-74
2023/08/16 01:58:25;;;;;;;7.85;5.85;;;;;;;26.82;54.56;100414.81;4879208;29;20406;-73
2023/08/16 02:00:57;;;;;;;7.93;5.63;;;;;;;26.82;54.16;100409.34;4879252;29;20078;-73
2023/08/16 02:03:25;;;;;;;9.13;6.10;;;;;;;26.80;54.26;100400.50;4878799;29;20083;-73
2023/08/16 02:05:53;;;;;;;7.25;5.55;;;;;;;26.79;54.79;100404.28;4878862;29;20056;-73
2023/08/16 02:08:21;;;;;;;8.27;6.30;;;;;;;26.80;54.93;100407.84;4878092;29;20049;-73
2023/08/16 02:10:51;;;;;;;9.27;5.90;;;;;;;26.80;54.54;100408.72;4879219;29;20139;-74
2023/08/16 02:13:19;;;;;;;7.38;5.63;;;;;;;26.78;54.89;100401.75;4879114;29;20052;-72
2023/08/16 02:15:47;;;;;;;9.50;6.40;;;;;;;26.78;54.72;100399.84;4879012;29;20049;-72
2023/08/16 02:18:17;;;;;;;9.13;6.25;;;;;;;26.77;55.12;100400.88;4878813;29;20057;-73
2023/08/16 02:20:45;;;;;;;8.38;6.10;;;;;;;26.75;55.38;100396.66;4878970;29;20049;-73
2023/08/16 02:23:13;;;;;;;8.82;6.00;;;;;;;26.75;54.94;100402.97;4878883;29;20505;-73
2023/08/16 02:25:44;;;;;;;8.63;5.78;;;;;;;26.74;55.55;100395.81;4878866;29;20055;-73
2023/08/16 02:28:18;;;;;;;7.88;5.85;;;;;;;26.73;55.62;100396.88;4878823;29;20053;-73
2023/08/16 02:30:48;;;;;;;8.07;5.47;;;;;;;26.73;55.56;100405.06;4878778;29;20049;-73
2023/08/16 02:33:17;;;;;;;9.07;6.05;;;;;;;26.72;55.49;100397.88;4878677;29;20097;-73
2023/08/16 02:35:46;;;;;;;9.95;6.28;;;;;;;26.72;55.87;100395.13;4878537;29;20076;-73
2023/08/16 02:38:14;;;;;;;8.07;6.05;;;;;;;26.71;55.40;100398.06;4878489;29;20140;-73
2023/08/16 02:40:42;;;;;;;9.77;6.00;;;;;;;26.69;55.48;100400.16;4878638;29;20812;-74
2023/08/16 02:43:10;;;;;;;10.65;6.10;;;;;;;26.68;55.95;100404.78;4877388;29;20060;-73
2023/08/16 02:45:38;;;;;;;9.10;6.32;;;;;;;26.68;55.47;100393.84;4878376;29;20076;-74
2023/08/16 02:48:07;;;;;;;9.00;5.88;;;;;;;26.67;55.59;100389.41;4878310;29;20061;-73
2023/08/16 02:50:37;;;;;;;9.80;6.28;;;;;;;26.65;56.15;100385.19;4878290;29;20065;-74
2023/08/16 02:53:05;;;;;;;9.57;6.07;;;;;;;26.65;56.14;100390.66;4878173;29;20053;-73
2023/08/16 02:55:36;;;;;;;8.80;6.15;;;;;;;26.64;56.16;100395.28;4878348;29;20135;-73
2023/08/16 02:58:07;;;;;;;8.98;5.95;;;;;;;26.62;56.33;100394.59;4878218;29;20109;-73
2023/08/16 03:00:35;;;;;;;9.82;6.47;;;;;;;26.61;56.01;100395.66;4877461;29;20078;-72
2023/08/16 03:03:05;;;;;;;9.55;6.15;;;;;;;26.61;56.45;100398.38;4877998;29;20129;-73
2023/08/16 03:05:34;;;;;;;7.53;6.50;;;;;;;26.60;56.19;100401.31;4878343;29;20060;-72
2023/08/16 03:08:04;;;;;;;7.72;6.15;;;;;;;26.60;56.28;100406.78;4877966;29;20438;-73
2023/08/16 03:10:33;;;;;;;9.45;6.43;;;;;;;26.58;56.74;100407.00;4878013;29;20614;-73
2023/08/16 03:13:01;;;;;;;9.93;6.53;;;;;;;26.55;56.43;100401.91;4877933;29;20057;-73
2023/08/16 03:15:30;;;;;;;8.70;6.38;;;;;;;26.57;56.85;100405.28;4877330;29;20114;-73
2023/08/16 03:18:00;;;;;;;9.88;6.28;;;;;;;26.56;56.52;100420.00;4877855;29;20049;-73
2023/08/16 03:20:28;;;;;;;8.05;6.55;;;;;;;26.55;56.82;100423.78;4877950;29;20060;-73
2023/08/16 03:22:56;;;;;;;11.05;6.28;;;;;;;26.53;56.97;100418.50;4877560;29;20155;-73
2023/08/16 03:25:29;;;;;;;9.10;6.60;;;;;;;26.53;56.95;100426.69;4877718;29;20065;-72
2023/08/16 03:27:57;;;;;;;9.67;6.07;;;;;;;26.52;56.82;100421.41;4877698;29;20067;-72
2023/08/16 03:30:29;;;;;;;9.07;6.60;;;;;;;26.52;57.17;100418.69;4877967;29;20452;-72
2023/08/16 03:32:58;;;;;;;9.10;6.53;;;;;;;26.50;56.75;100416.16;4876730;29;20049;-73
2023/08/16 03:35:29;;;;;;;10.25;6.00;;;;;;;26.51;57.04;100417.00;4876947;29;20056;-73
2023/08/16 03:37:57;;;;;;;7.82;6.63;;;;;;;26.48;57.14;100415.50;4877666;29;20148;-72
2023/08/16 03:40:27;;;;;;;8.55;6.45;;;;;;;26.48;57.37;100425.59;4877499;29;20053;-73
2023/08/16 03:42:58;;;;;;;11.18;6.45;;;;;;;26.48;56.84;100431.91;4877786;29;20064;-73
2023/08/16 03:45:26;;;;;;;8.10;6.55;;;;;;;26.47;57.18;100432.09;4877612;29;20053;-73
2023/08/16 03:47:57;;;;;;;8.65;6.00;;;;;;;26.45;57.20;100406.84;4877357;29;20136;-72
2023/08/16 03:50:26;;;;;;;7.85;6.40;;;;;;;26.45;57.21;100420.50;4877566;29;20060;-72
2023/08/16 03:52:54;;;;;;;10.50;6.45;;;;;;;26.47;57.36;100426.63;4877462;29;20053;-73
2023/08/16 03:55:29;;;;;;;9.65;6.57;;;;;;;26.44;57.01;100416.94;4877952;29;20080;-72
2023/08/16 03:57:57;;;;;;;7.45;6.40;;;;;;;26.42;57.19;100421.72;4877521;29;20559;-73
2023/08/16 04:00:26;;;;;;;9.63;6.60;;;;;;;26.42;57.61;100407.19;4877754;29;20493;-73
2023/08/16 04:02:55;;;;;;;9.35;6.45;;;;;;;26.41;57.62;100420.03;4877360;29;20057;-72
2023/08/16 04:05:24;;;;;;;8.70;6.63;;;;;;;26.40;57.22;100421.06;4877565;29;20045;-74
2023/08/16 04:07:52;;;;;;;9.70;6.35;;;;;;;26.40;57.42;100421.06;4877471;29;20113;-72
2023/08/16 04:10:20;;;;;;;9.07;6.63;;;;;;;26.41;57.78;100435.59;4877823;29;20105;-73
2023/08/16 04:12:50;;;;;;;9.32;6.45;;;;;;;26.40;57.70;100439.38;4877631;29;20060;-73
2023/08/16 04:15:18;;;;;;;10.15;6.88;;;;;;;26.39;57.72;100451.34;4877543;29;20057;-74
2023/08/16 04:17:46;;;;;;;8.25;6.30;;;;;;;26.39;57.58;100454.09;4877418;29;20063;-73
2023/08/16 04:20:15;;;;;;;10.07;6.65;;;;;;;26.38;57.44;100444.19;4877415;29;20414;-73
2023/08/16 04:22:43;;;;;;;9.95;6.85;;;;;;;26.37;57.60;100450.66;4877302;29;20053;-73
2023/08/16 04:25:11;;;;;;;11.00;6.88;;;;;;;26.37;57.84;100451.53;4876363;29;20057;-74
2023/08/16 04:27:39;;;;;;;10.02;7.32;;;;;;;26.37;57.56;100439.72;4880336;29;20176;-74
2023/08/16 04:30:12;;;;;;;8.50;6.50;;;;;;;26.36;57.74;100448.97;4880886;29;20491;-74
2023/08/16 04:32:40;;;;;;;9.02;6.63;;;;;;;26.36;58.00;100443.50;4880753;29;20053;-73
2023/08/16 04:35:09;;;;;;;8.90;6.70;;;;;;;26.35;58.13;100433.59;4880977;29;20049;-72
2023/08/16 04:37:39;;;;;;;10.05;6.45;;;;;;;26.35;57.67;100444.53;4880659;29;20053;-73
2023/08/16 04:40:08;;;;;;;10.27;6.93;;;;;;;26.33;57.90;100444.72;4880435;29;20333;-73
2023/08/16 04:42:36;;;;;;;8.35;6.07;;;;;;;26.36;58.34;100452.56;4880552;29;20069;-73
2023/08/16 04:45:05;;;;;;;11.05;6.88;;;;;;;26.35;57.83;100456.31;4880370;29;20106;-72
2023/08/16 04:47:34;;;;;;;11.10;7.13;;;;;;;26.34;57.97;100451.03;4880267;29;20049;-72
2023/08/16 04:50:06;;;;;;;11.82;6.93;;;;;;;26.34;58.13;100462.81;4880568;29;20132;-73
2023/08/16 04:52:38;;;;;;;8.63;6.57;;;;;;;26.33;58.57;100463.00;4880469;29;20049;-72
2023/08/16 04:55:09;;;;;;;9.18;6.90;;;;;;;26.33;58.63;100454.78;4880058;29;20487;-72
2023/08/16 04:57:37;;;;;;;9.25;6.80;;;;;;;26.33;58.20;100458.38;4880333;29;20045;-73
2023/08/16 05:00:09;;;;;;;9.35;6.75;;;;;;;26.31;58.77;100454.16;4880156;29;20049;-72
2023/08/16 05:02:38;;;;;;;8.90;6.60;;;;;;;26.30;59.06;100463.38;4880412;29;20060;-73
2023/08/16 05:05:07;;;;;;;7.75;6.45;;;;;;;26.29;59.25;100454.34;4879724;29;20061;-73
2023/08/16 05:07:35;;;;;;;8.57;6.63;;;;;;;26.28;58.99;100449.06;4880086;29;20479;-74
2023/08/16 05:10:07;;;;;;;9.57;6.43;;;;;;;26.29;59.08;100450.75;4878720;29;20526;-73
2023/08/16 05:12:35;;;;;;;10.45;6.70;;;;;;;26.28;58.70;100449.06;4880001;29;20135;-73
2023/08/16 05:15:04;;;;;;;9.50;6.35;;;;;;;26.29;58.86;100450.75;4880158;29;20152;-73
2023/08/16 05:17:33;;;;;;;11.32;6.70;;;;;;;26.28;59.14;100438.13;4880149;29;20053;-73
2023/08/16 05:20:04;;;;;;;10.90;6.68;;;;;;;26.29;58.69;100445.28;4879997;29;20525;-72
2023/08/16 05:22:33;;;;;;;9.07;6.43;;;;;;;26.29;58.87;100439.81;4880025;29;20363;-73
2023/08/16 05:25:01;;;;;;;12.90;6.43;;;;;;;26.30;59.18;100452.44;4879603;29;20056;-73
2023/08/16 05:27:30;;;;;;;7.72;6.30;;;;;;;26.29;58.78;100454.34;4879931;29;20049;-73
2023/08/16 05:30:00;;;;;;;10.45;5.93;;;;;;;26.30;58.83;100464.22;4879516;29;20113;-71
2023/08/16 05:32:28;;;;;;;10.02;6.38;;;;;;;26.29;59.20;100459.81;4879935;29;20107;-73
2023/08/16 05:34:56;;;;;;;9.48;6.10;;;;;;;26.29;59.01;100451.59;4879672;29;20061;-73
2023/08/16 05:37:25;;;;;;;8.05;6.45;;;;;;;26.30;59.26;100472.44;4879305;29;20049;-73
2023/08/16 05:39:54;;;;;;;7.78;5.50;;;;;;;26.31;59.28;100473.28;4879544;29;20083;-72
2023/08/16 05:42:22;;;;;;;9.18;6.47;;;;;;;26.30;59.27;100468.84;4879708;29;20088;-72
2023/08/16 05:44:51;;;;;;;8.48;6.25;;;;;;;26.32;58.96;100477.72;4879338;29;20085;-71
2023/08/16 05:47:22;;;;;;;9.63;6.32;;;;;;;26.31;58.92;100486.97;4879179;29;20105;-71
2023/08/16 05:49:51;;;;;;;8.23;6.22;;;;;;;26.30;59.02;100474.31;4879315;29;20045;-72
2023/08/16 05:52:19;;;;;;;9.93;6.35;;;;;;;26.32;59.05;100480.44;4879302;29;20057;-72
2023/08/16 05:54:49;;;;;;;8.82;6.32;;;;;;;26.33;59.53;100476.66;4879633;29;20467;-72
2023/08/16 05:57:17;;;;;;;9.82;6.47;;;;;;;26.34;59.12;100464.69;4878196;29;20049;-75
2023/08/16 05:59:47;;;;;;;10.02;6.22;;;;;;;26.32;59.55;100464.03;4879469;29;20396;-73
2023/08/16 06:02:15;;;;;;;8.73;6.25;;;;;;;26.34;59.16;100467.44;4879357;29;20052;-71
2023/08/16 06:04:43;;;;;;;9.52;6.55;;;;;;;26.35;59.62;100466.41;4878797;29;20061;-71
2023/08/16 06:07:11;;;;;;;10.63;6.80;;;;;;;26.37;59.57;100475.28;4878905;29;20045;-71
2023/08/16 06:09:40;;;;;;;7.75;6.40;;;;;;;26.36;59.51;100474.44;4879269;29;20053;-74
2023/08/16 06:12:13;;;;;;;7.50;6.10;;;;;;;26.37;59.54;100475.28;4879021;29;20049;-73
2023/08/16 06:14:44;;;;;;;11.13;6.82;;;;;;;26.38;59.32;100477.00;4877309;29;20049;-72
2023/08/16 06:17:12;;;;;;;9.27;6.93;;;;;;;26.38;59.25;100472.38;4878278;29;20049;-73
2023/08/16 06:19:40;;;;;;;8.80;6.28;;;;;;;26.37;59.32;100478.88;4878752;29;20049;-73
2023/08/16 06:22:10;;;;;;;9.10;6.45;;;;;;;26.39;59.35;100481.44;4878950;29;20060;-73
2023/08/16 06:24:43;;;;;;;7.72;6.07;;;;;;;26.38;59.61;100480.59;4878898;29;20396;-74
2023/08/16 06:27:12;;;;;;;10.40;6.50;;;;;;;26.39;59.54;100479.53;4878796;29;20216;-74
2023/08/16 06:29:41;;;;;;;8.82;6.60;;;;;;;26.40;59.17;100475.75;4878616;29;20057;-70
2023/08/16 06:32:09;;;;;;;9.35;6.93;;;;;;;26.42;59.22;100483.78;4878573;29;20053;-75
2023/08/16 06:34:38;;;;;;;11.55;7.10;;;;;;;26.42;59.47;100475.56;4878752;29;20392;-74
2023/08/16 06:37:06;;;;;;;8.35;6.25;;;;;;;26.41;59.29;100476.63;4878627;29;20049;-71
2023/08/16 06:39:34;;;;;;;10.75;6.63;;;;;;;26.43;59.79;100480.00;4878453;29;20049;-72
2023/08/16 06:42:03;;;;;;;10.20;6.97;;;;;;;26.43;59.26;100471.78;4878343;29;20049;-72
2023/08/16 06:44:33;;;;;;;10.30;6.65;;;;;;;26.44;59.62;100471.63;4877961;29;20147;-72
2023/08/16 06:47:03;;;;;;;9.15;6.43;;;;;;;26.45;59.28;100477.94;4878382;29;20060;-72
2023/08/16 06:49:34;;;;;;;9.60;6.88;;;;;;;26.46;59.62;100469.53;4877703;29;20049;-73
2023/08/16 06:52:03;;;;;;;10.43;6.93;;;;;;;26.48;59.36;100483.03;4878157;29;20427;-73
2023/08/16 06:54:32;;;;;;;9.48;6.93;;;;;;;26.47;59.63;100476.72;4877937;29;20053;-72
2023/08/16 06:57:01;;;;;;;12.55;7.00;;;;;;;26.48;59.32;100466.63;4877945;29;20056;-72
2023/08/16 06:59:36;;;;;;;10.30;7.13;;;;;;;26.49;59.73;100473.78;4878282;29;20045;-73
2023/08/16 07:02:05;;;;;;;8.73;6.60;;;;;;;26.48;59.79;100475.66;4878113;29;20053;-72
2023/08/16 07:04:34;;;;;;;8.05;6.57;;;;;;;26.48;59.74;100466.63;4878024;29;20061;-72
2023/08/16 07:07:05;;;;;;;10.23;6.85;;;;;;;26.50;59.80;100479.06;4878016;29;20101;-73
2023/08/16 07:09:34;;;;;;;11.60;7.13;;;;;;;26.50;59.68;100470.00;4877865;29;20096;-73
2023/08/16 07:12:05;;;;;;;9.57;6.65;;;;;;;26.50;59.83;100457.16;4878053;29;20468;-73
2023/08/16 07:14:35;;;;;;;10.68;7.10;;;;;;;26.51;59.53;100466.22;4878047;29;20087;-74
2023/08/16 07:17:05;;;;;;;9.60;7.25;;;;;;;26.51;59.68;100466.22;4877970;29;20055;-73
2023/08/16 07:19:33;;;;;;;9.13;6.82;;;;;;;26.52;59.78;100474.22;4877964;29;20100;-74
2023/08/16 07:22:05;;;;;;;8.55;6.55;;;;;;;26.55;59.58;100474.91;4877749;29;20387;-74
2023/08/16 07:24:33;;;;;;;9.05;6.40;;;;;;;26.55;59.90;100473.03;4877754;29;20053;-73
2023/08/16 07:27:03;;;;;;;9.45;6.20;;;;;;;26.55;59.69;100467.56;4878021;29;20049;-71
2023/08/16 07:29:31;;;;;;;9.57;6.70;;;;;;;26.55;59.78;100470.28;4877806;29;20122;-71
2023/08/16 07:32:01;;;;;;;8.90;6.35;;;;;;;26.56;59.93;100477.47;4877826;29;20049;-70
2023/08/16 07:34:29;;;;;;;10.32;7.00;;;;;;;26.58;59.47;100482.72;4877614;29;20101;-71
2023/08/16 07:36:57;;;;;;;9.35;6.35;;;;;;;26.59;59.89;100476.22;4877484;29;20053;-70
2023/08/16 07:39:31;;;;;;;10.25;6.65;;;;;;;26.59;59.51;100485.28;4877529;29;20442;-70
2023/08/16 07:41:59;;;;;;;10.30;6.70;;;;;;;26.62;59.28;100479.41;4877784;29;20059;-70
2023/08/16 07:44:27;;;;;;;9.23;7.03;;;;;;;26.61;59.32;100472.25;4877686;29;20096;-69
2023/08/16 07:46:56;;;;;;;8.32;6.57;;;;;;;26.64;59.34;100471.88;4876442;29;20076;-70
2023/08/16 07:49:25;;;;;;;8.90;6.63;;;;;;;26.65;59.75;100475.47;4876809;29;20053;-70
2023/08/16 07:51:56;;;;;;;9.82;6.65;;;;;;;26.66;59.60;100468.94;4877533;29;20091;-69
2023/08/16 07:54:24;;;;;;;8.05;6.45;;;;;;;26.68;59.63;100478.66;4877697;29;20057;-69
2023/08/16 07:56:53;;;;;;;9.48;6.15;;;;;;;26.70;59.12;100484.78;4877492;29;20053;-69
2023/08/16 07:59:21;;;;;;;10.13;6.70;;;;;;;26.72;59.04;100490.06;4877094;29;20125;-70
2023/08/16 08:01:51;;;;;;;8.68;6.45;;;;;;;26.73;59.18;100492.63;4879089;29;20452;-70
2023/08/16 08:04:20;;;;;;;8.43;6.78;;;;;;;26.74;59.38;100494.31;4881277;29;20096;-70
2023/08/16 08:06:50;;;;;;;8.75;6.80;;;;;;;26.77;59.42;100502.13;4881311;29;20080;-70
2023/08/16 08:09:18;;;;;;;8.35;6.50;;;;;;;26.78;59.49;100505.72;4881155;29;20069;-70
2023/08/16 08:11:47;;;;;;;9.02;6.75;;;;;;;26.79;59.38;100508.25;4881049;29;20053;-69
2023/08/16 08:14:17;;;;;;;8.18;6.30;;;;;;;26.81;59.24;100516.28;4880817;29;20078;-69
2023/08/16 08:16:46;;;;;;;8.82;6.60;;;;;;;26.81;59.00;100506.16;4881119;29;20114;-69
2023/08/16 08:19:14;;;;;;;9.13;6.85;;;;;;;26.84;58.88;100509.59;4880883;29;20135;-70
2023/08/16 08:21:43;;;;;;;7.78;6.53;;;;;;;26.85;59.14;100505.81;4880721;29;20053;-70
2023/08/16 08:24:15;;;;;;;9.00;6.63;;;;;;;26.85;59.14;100512.13;4880626;29;20127;-70
2023/08/16 08:26:48;;;;;;;9.32;7.03;;;;;;;26.86;58.73;100516.56;4880601;29;20055;-69
2023/08/16 08:29:18;;;;;;;9.85;6.97;;;;;;;26.88;58.70;100508.16;4880912;29;20053;-70
2023/08/16 08:31:46;;;;;;;8.93;6.45;;;;;;;26.90;59.04;100508.81;4880666;29;20524;-70
2023/08/16 08:34:16;;;;;;;10.25;7.15;;;;;;;26.90;59.35;100509.66;4880628;29;20152;-70
2023/08/16 08:36:44;;;;;;;11.55;7.40;;;;;;;26.90;59.23;100514.28;4880530;29;20393;-70
2023/08/16 08:39:15;;;;;;;11.10;7.18;;;;;;;26.93;59.09;100519.38;4880403;29;20053;-70
2023/08/16 08:41:46;;;;;;;10.73;7.22;;;;;;;26.91;58.88;100522.28;4880672;29;20049;-70
2023/08/16 08:44:16;;;;;;;13.40;7.47;;;;;;;26.93;58.85;100522.13;4880739;29;20065;-70
2023/08/16 08:46:46;;;;;;;12.02;8.07;;;;;;;26.93;59.29;100527.59;4880420;29;20148;-70
2023/08/16 08:49:15;;;;;;;9.60;7.80;;;;;;;26.92;59.50;100525.88;4880434;29;20061;-70
2023/08/16 08:51:44;;;;;;;10.68;7.40;;;;;;;26.91;59.33;100518.72;4880444;29;20059;-70
2023/08/16 08:54:15;;;;;;;12.52;8.60;;;;;;;26.92;59.65;100523.13;4880402;29;20469;-70
2023/08/16 08:56:44;;;;;;;11.23;7.80;;;;;;;26.92;58.94;100528.63;4880446;29;20049;-69
2023/08/16 08:59:16;;;;;;;10.52;7.65;;;;;;;26.95;59.09;100529.09;4880821;29;20057;-69
2023/08/16 09:01:46;;;;;;;11.35;8.20;;;;;;;26.99;59.00;100526.81;4880862;29;20483;-70
2023/08/16 09:04:15;;;;;;;12.70;8.07;;;;;;;27.00;59.14;100521.13;4881306;29;20475;-69
2023/08/16 09:06:44;;;;;;;9.68;7.65;;;;;;;27.04;58.92;100532.59;4880957;29;20464;-70
2023/08/16 09:09:12;;;;;;;11.95;7.50;;;;;;;27.06;58.88;100531.38;4880585;29;20053;-69
2023/08/16 09:11:43;;;;;;;12.57;7.68;;;;;;;27.08;58.42;100532.00;4880087;29;20049;-69
2023/08/16 09:14:11;;;;;;;9.60;7.90;;;;;;;27.10;58.68;100523.59;4879107;29;20056;-69
2023/08/16 09:16:40;;;;;;;10.70;8.48;;;;;;;27.12;58.44;100517.94;4880048;29;20051;-69
2023/08/16 09:19:13;;;;;;;11.07;8.40;;;;;;;27.15;58.69;100523.88;4879655;29;20059;-69
2023/08/16 09:21:45;;;;;;;11.75;9.07;;;;;;;27.17;58.17;100523.69;4880107;29;20048;-70
2023/08/16 09:24:14;;;;;;;11.45;9.00;;;;;;;27.17;58.19;100524.53;4879892;29;20120;-69
2023/08/16 09:26:46;;;;;;;11.30;9.10;;;;;;;27.17;57.86;100519.06;4879633;29;20567;-70
2023/08/16 09:29:17;;;;;;;11.18;9.00;;;;;;;27.19;57.93;100533.41;4879598;29;20088;-70
2023/08/16 09:31:46;;;;;;;12.55;9.55;;;;;;;27.18;57.45;100523.50;4879494;29;20049;-70
2023/08/16 09:34:15;;;;;;;13.43;9.95;;;;;;;27.17;57.20;100527.28;4879882;29;20144;-69
2023/08/16 09:36:47;;;;;;;12.35;9.38;;;;;;;27.17;57.20;100521.78;4880317;29;20057;-70
2023/08/16 09:39:15;;;;;;;14.85;9.68;;;;;;;27.19;57.04;100530.66;4879671;29;20059;-69
2023/08/16 09:41:51;;;;;;;10.80;9.25;;;;;;;27.16;56.12;100533.78;4879446;29;20049;-70
2023/08/16 09:44:20;;;;;;;13.57;9.65;;;;;;;27.18;55.94;100536.34;4879315;29;20052;-70
2023/08/16 09:46:48;;;;;;;14.00;9.45;;;;;;;27.19;56.23;100527.91;4879369;29;20112;-70
2023/08/16 09:49:23;;;;;;;11.68;8.95;;;;;;;27.20;55.82;100523.28;4879193;29;20487;-70
2023/08/16 09:51:51;;;;;;;15.15;8.98;;;;;;;27.23;56.22;100523.78;4878130;29;20049;-70
2023/08/16 09:54:24;;;;;;;14.07;9.35;;;;;;;27.24;56.13;100517.25;4879273;29;20407;-70
2023/08/16 09:56:54;;;;;;;13.27;9.13;;;;;;;27.26;56.21;100517.88;4877743;29;20478;-70
2023/08/16 09:59:26;;;;;;;9.73;8.35;;;;;;;27.30;56.04;100521.94;4879118;29;20487;-70
2023/08/16 10:01:58;;;;;;;10.25;8.50;;;;;;;27.32;56.17;100519.88;4879037;29;20045;-70
2023/08/16 10:04:31;;;;;;;14.30;8.55;;;;;;;27.34;56.19;100519.66;4877597;29;20503;-70
2023/08/16 10:07:04;;;;;;;12.45;8.38;;;;;;;27.38;56.23;100526.44;4877647;29;20053;-70
2023/08/16 10:09:53;;;;;;;11.88;8.50;;;;;;;27.40;56.13;100516.13;4857777;29;20456;-70
2023/08/16 10:12:24;;;;;;;10.98;8.52;;;;;;;27.43;55.77;100523.13;4857891;29;20056;-68
2023/08/16 10:14:52;;;;;;;9.88;8.45;;;;;;;27.45;55.52;100518.28;4857781;29;20065;-70
2023/08/16 10:17:21;;;;;;;11.50;8.57;;;;;;;27.47;55.36;100528.00;4857657;29;20064;-70
2023/08/16 10:19:58;;;;;;;11.48;8.15;;;;;;;27.51;55.36;100526.59;4857477;29;20148;-70
2023/08/16 10:22:38;;;;;;;10.30;8.27;;;;;;;27.53;55.77;100526.38;4857424;29;20054;-70
2023/08/16 10:25:11;;;;;;;10.23;8.57;;;;;;;27.56;55.25;100536.94;4857518;29;20140;-69
2023/08/16 10:27:46;;;;;;;14.70;9.13;;;;;;;27.58;54.91;100529.38;4864199;29;20468;-70
2023/08/16 10:30:19;;;;;;;11.23;8.43;;;;;;;27.59;54.44;100531.91;4878546;29;20396;-70
2023/08/16 10:32:51;;;;;;;11.30;8.45;;;;;;;27.61;54.95;100529.84;4878632;29;20057;-70
2023/08/16 10:35:20;;;;;;;10.07;8.13;;;;;;;27.66;54.47;100542.97;4878700;29;20140;-70
2023/08/16 10:37:49;;;;;;;12.10;8.23;;;;;;;27.70;54.24;100537.94;4878514;29;20456;-70
2023/08/16 10:40:24;;;;;;;12.68;8.70;;;;;;;27.71;54.42;100543.25;4878297;29;20049;-70
2023/08/16 10:42:56;;;;;;;10.32;8.43;;;;;;;27.72;54.07;100542.19;4878587;29;20053;-70
2023/08/16 10:45:26;;;;;;;11.43;9.00;;;;;;;27.75;53.60;100530.84;4878396;29;20044;-70
2023/08/16 10:48:17;;;;;;;9.90;8.40;;;;;;;27.78;53.86;100546.88;4878189;29;20049;-70
2023/08/16 10:50:56;;;;;;;12.85;8.52;;;;;;;27.80;53.25;100542.06;4878055;29;20053;-69
2023/08/16 10:53:25;;;;;;;11.38;8.50;;;;;;;27.80;53.48;100522.88;4878522;29;20096;-70
2023/08/16 10:55:55;;;;;;;13.75;8.80;;;;;;;27.82;53.01;100529.00;4878224;29;20129;-70
2023/08/16 10:58:28;;;;;;;14.93;8.95;;;;;;;27.82;52.97;100520.78;4877810;29;20571;-70
2023/08/16 11:01:04;;;;;;;15.02;8.65;;;;;;;27.85;52.97;100517.63;4877973;29;20519;-70
2023/08/16 11:03:32;;;;;;;9.35;8.25;;;;;;;27.88;52.98;100532.84;4877841;29;20125;-70
2023/08/16 11:06:01;;;;;;;12.05;8.00;;;;;;;27.92;52.56;100525.94;4878188;29;20057;-70
2023/08/16 11:08:31;;;;;;;13.15;8.60;;;;;;;27.92;52.72;100515.81;4878037;29;20048;-70
2023/08/16 11:11:02;;;;;;;11.38;8.05;;;;;;;27.97;52.38;100506.97;4877833;29;20049;-69
2023/08/16 11:13:31;;;;;;;11.20;8.00;;;;;;;27.97;52.85;100522.56;4878020;29;20945;-69
2023/08/16 11:16:01;;;;;;;11.98;9.15;;;;;;;28.01;52.87;100526.63;4876602;29;20456;-69
2023/08/16 11:18:31;;;;;;;11.20;8.95;;;;;;;28.02;52.81;100536.53;4877601;29;20053;-69
2023/08/16 11:21:07;;;;;;;13.02;9.35;;;;;;;28.00;52.83;100544.13;4877805;29;20053;-70
2023/08/16 11:23:37;;;;;;;13.95;9.18;;;;;;;28.02;52.83;100531.91;4877720;29;20059;-69
2023/08/16 11:26:09;;;;;;;16.15;9.95;;;;;;;28.03;52.59;100544.56;4877876;29;20125;-70
2023/08/16 11:28:41;;;;;;;16.98;9.13;;;;;;;28.07;52.65;100540.38;4877588;29;20149;-70
2023/08/16 11:31:10;;;;;;;16.38;9.65;;;;;;;28.09;52.39;100527.31;4877682;29;20068;-69
2023/08/16 11:33:40;;;;;;;15.68;8.85;;;;;;;28.12;52.62;100520.59;4877783;29;20053;-69